Flight Track Log - Related Links

Times and Time Zones

All times are in EDT time to prevent confusion due to time zone crossing. See the SWA3924 flight status page for this flight to view local times or setup timezone preferences in your user account.

Time Position Orientation Groundspeed Altitude Reporting Facility
EDT Latitude Longitude Course Direction KTS MPH feet Rate Location/Type
Wed 10:35:39 PM 37.7264 -122.2481 313° West 151 174 1,700  Level Oakland Center
Wed 10:36:40 PM 37.7617 -122.2958 313° West 180 207 4,400 2,852 Climbing Oakland Center
Wed 10:38:00 PM 37.9022 -122.3006 338° Northwest  Level Estimated
Wed 10:38:42 PM 37.9003 -122.2994 338° Northwest 268 308 10,400  Level Oakland Center
Wed 10:39:44 PM 37.9828 -122.2714 15° North 301 346 13,300 3,122 Climbing Oakland Center
Wed 10:40:45 PM 38.0764 -122.2403 15° North 340 391 16,800 3,885 Climbing Oakland Center
Wed 10:41:46 PM 38.1942 -122.2008 15° North 363 418 21,200 3,443 Climbing Oakland Center
Wed 10:42:47 PM 38.2983 -122.2039 359° North 380 437 23,800 2,656 Climbing Oakland Center
Wed 10:43:48 PM 38.4072 -122.2136 356° North 391 450 26,600 2,557 Climbing Oakland Center
Wed 10:44:49 PM 38.5183 -122.2236 356° North 401 461 29,000 2,115 Climbing Oakland Center
Wed 10:45:50 PM 38.6353 -122.2336 356° North 420 483 30,900 2,115 Climbing Oakland Center
Wed 10:46:51 PM 38.7442 -122.2433 356° North 427 491 33,300 2,508 Climbing Oakland Center
Wed 10:47:52 PM 38.8819 -122.2561 356° North 411 473 36,000 1,820 Climbing Oakland Center
Wed 10:48:53 PM 38.9997 -122.2661 356° North 419 482 37,000 1,328 Climbing Oakland Center
Wed 10:49:54 PM 39.1206 -122.2772 356° North 430 495 38,700 1,426 Climbing Oakland Center
Wed 10:50:55 PM 39.2397 -122.2875 356° North 427 491 39,900 639 Climbing Oakland Center
Wed 10:51:56 PM 39.3594 -122.2994 356° North 429 494 40,000 49 Climbing Oakland Center
Wed 10:52:58 PM 39.4797 -122.3089 357° North 430 495 40,000  Level Oakland Center
Wed 10:53:59 PM 39.5903 -122.3186 356° North 430 495 40,000  Level Oakland Center
Wed 10:55:00 PM 39.7086 -122.3286 356° North 427 491 40,000  Level Oakland Center
Wed 10:56:01 PM 39.8508 -122.3417 356° North 426 490 40,000  Level Oakland Center
Wed 10:57:02 PM 39.9711 -122.3528 356° North 430 495 40,000  Level Oakland Center
Wed 10:58:03 PM 40.0914 -122.3647 356° North 429 494 40,000  Level Oakland Center
Wed 10:59:04 PM 40.1953 -122.3731 356° North 433 498 40,000  Level Oakland Center
Wed 11:00:05 PM 40.3167 -122.3833 356° North 434 499 40,000  Level Oakland Center
Wed 11:01:06 PM 40.4600 -122.3972 356° North 431 496 40,000  Level Oakland Center
Wed 11:02:07 PM 40.5808 -122.4081 356° North 433 498 40,000  Level Oakland Center
Wed 11:03:08 PM 40.7008 -122.4172 357° North 433 498 40,000  Level Oakland Center
Wed 11:04:10 PM 40.8217 -122.4272 356° North 433 498 40,000  Level Oakland Center
Wed 11:05:11 PM 40.9428 -122.4386 356° North 438 504 40,000  Level Oakland Center
Wed 11:06:12 PM 41.0642 -122.4489 356° North 437 503 40,000 49 Level Oakland Center
Wed 11:07:13 PM 41.1853 -122.4658 354° North 439 505 40,100  Climbing Oakland Center
Wed 11:08:14 PM 41.3072 -122.4756 357° North 439 505 40,000 -59 Descending Oakland Center
Wed 11:08:54 PM 41.3794 -122.4842 355° North 435 501 40,000  Level Seattle Center
Wed 11:09:55 PM 41.5111 -122.4919 357° North 442 509 40,000  Level Seattle Center
Wed 11:10:55 PM 41.6333 -122.5036 356° North 439 505 40,000  Level Seattle Center
Wed 11:11:56 PM 41.7561 -122.5164 356° North 440 506 40,000  Level Seattle Center
Wed 11:12:57 PM 41.8775 -122.5269 356° North 438 504 40,000  Level Seattle Center
Wed 11:13:57 PM 41.9994 -122.5386 356° North 436 502 40,000  Level Seattle Center
Wed 11:14:58 PM 42.1194 -122.5506 356° North 432 497 40,000  Level Seattle Center
Wed 11:15:59 PM 42.2378 -122.5619 356° North 425 489 40,000  Level Seattle Center
Wed 11:16:59 PM 42.3594 -122.5733 356° North 432 497 40,000  Level Seattle Center
Wed 11:18:00 PM 42.4803 -122.5847 356° North 430 495 40,000  Level Seattle Center
Wed 11:19:00 PM 42.6017 -122.5972 356° North 434 499 40,000  Level Seattle Center
Wed 11:20:01 PM 42.7372 -122.6119 355° North 432 497 40,000  Level Seattle Center
Wed 11:21:02 PM 42.8558 -122.6225 356° North 426 490 40,000  Level Seattle Center
Wed 11:22:02 PM 42.9744 -122.6356 355° North 425 489 40,000  Level Seattle Center
Wed 11:23:03 PM 43.0928 -122.6444 357° North 423 487 40,000  Level Seattle Center
Wed 11:24:04 PM 43.2089 -122.6589 355° North 419 482 40,000  Level Seattle Center
Wed 11:25:04 PM 43.3258 -122.6686 357° North 420 483 40,000  Level Seattle Center
Wed 11:26:05 PM 43.4419 -122.6792 356° North 418 481 40,000  Level Seattle Center
Wed 11:27:05 PM 43.5578 -122.6917 356° North 416 479 40,000  Level Seattle Center
Wed 11:28:06 PM 43.6744 -122.7031 356° North 418 481 40,000 -496 Level Seattle Center
Wed 11:29:06 PM 43.7906 -122.7156 356° North 418 481 39,000 -1,537 Descending Seattle Center
Wed 11:30:07 PM 43.9044 -122.7269 356° North 411 473 36,900 -2,579 Descending Seattle Center
Wed 11:31:07 PM 44.0217 -122.7389 356° North 421 484 33,800 -3,025 Descending Seattle Center
Wed 11:32:08 PM 44.1406 -122.7511 356° North 430 495 30,800 -2,754 Descending Seattle Center
Wed 11:33:09 PM 44.2561 -122.7411 North 423 487 28,200 -2,628 Descending Seattle Center
Wed 11:34:09 PM 44.3744 -122.7306 North 414 476 25,500 -2,579 Descending Seattle Center
Wed 11:35:10 PM 44.4847 -122.7197 North 402 463 23,000 -2,430 Descending Seattle Center
Wed 11:36:10 PM 44.5906 -122.7092 North 388 447 20,600 -2,571 Descending Seattle Center
Wed 11:36:27 PM 44.6322 -122.7053 North 378 435 19,700 -2,262 Descending Seattle Center
Wed 11:37:11 PM 44.6933 -122.6994 North 375 432 18,300 -2,171 Descending Seattle Center
Wed 11:38:12 PM 44.7906 -122.6892 North 358 412 15,900 -2,579 Descending Seattle Center
Wed 11:39:12 PM 44.9078 -122.6778 North 354 407 13,100 -2,605 Descending Seattle Center
Wed 11:39:28 PM 44.9353 -122.6719 North 353 406 12,600 -1,770 Descending Seattle Center
Wed 11:40:13 PM 45.0022 -122.6694 North 347 399 11,300 -1,770 Descending Seattle Center
Wed 11:40:29 PM 45.0269 -122.6656 North 328 377 10,800 -1,300 Descending Seattle Center
Wed 11:41:13 PM 45.0892 -122.6564 North 324 373 10,000 -1,082 Descending Seattle Center
Wed 11:41:30 PM 45.1083 -122.6386 33° Northeast 292 336 9,700 -1,377 Descending Seattle Center
Wed 11:42:14 PM 45.1572 -122.6003 29° Northeast 287 330 8,600 -1,543 Descending Seattle Center
Wed 11:43:15 PM 45.2253 -122.5486 28° Northeast 279 321 7,000 -1,438 Descending Seattle Center
Wed 11:44:15 PM 45.2947 -122.5075 23° Northeast 274 315 5,700 -1,325 Descending Seattle Center
Wed 11:44:32 PM 45.3194 -122.4944 20° North 260 299 5,300 -1,558 Descending Seattle Center
Wed 11:45:32 PM 45.3833 -122.4561 23° Northeast 251 289 3,700 -1,615 Descending Seattle Center
Wed 11:46:16 PM 45.4256 -122.4342 20° North 258 297 2,500 -1,180 Descending Seattle Center
Wed 11:46:33 PM 45.4475 -122.4206 24° Northeast 256 295 2,500 -295 Level Seattle Center
Wed 11:47:17 PM 45.4869 -122.4056 15° North 246 283 2,200 -500 Descending Seattle Center
Wed 11:47:33 PM 45.5056 -122.4181 335° Northwest 207 238 2,000 -295 Descending Seattle Center
Wed 11:48:18 PM 45.5344 -122.4436 328° Northwest 216 249 1,900 -295 Descending Seattle Center
Wed 11:48:34 PM 45.5428 -122.4617 303° West 157 181 1,700 -800 Descending Seattle Center
Wed 11:49:18 PM 45.5553 -122.4964 297° West 180 207 1,100 -885 Descending Seattle Center
Wed 11:49:35 PM 45.5622 -122.5153 298° West 135 155 800 -689 Descending Seattle Center
Wed 11:50:19 PM 45.5736 -122.5436 300° West 156 180 400 -600 Descending Seattle Center
Wed 11:50:35 PM 45.5800 -122.5603 299° West 126 145 200 -750 Descending Seattle Center

Login

Don't have an account? Register now (free) for customized features, flight alerts, and more!